sensor_id;sensor_type;location;lat;lon;timestamp;pressure;altitude;pressure_sealevel;temperature;humidity
71857;BME280;63344;46.980;28.882;2024-02-26T00:00:16;100864.56;;;6.63;85.34
71857;BME280;63344;46.980;28.882;2024-02-26T00:03:04;100882.97;;;6.67;85.44
71857;BME280;63344;46.980;28.882;2024-02-26T00:05:33;100842.13;;;6.40;85.53
71857;BME280;63344;46.980;28.882;2024-02-26T00:08:00;100869.09;;;6.54;85.43
71857;BME280;63344;46.980;28.882;2024-02-26T00:10:31;100852.66;;;6.40;85.74
71857;BME280;63344;46.980;28.882;2024-02-26T00:12:58;100863.00;;;6.51;85.58
71857;BME280;63344;46.980;28.882;2024-02-26T00:15:26;100848.09;;;6.50;85.59
71857;BME280;63344;46.980;28.882;2024-02-26T00:17:54;100883.66;;;6.77;85.17
71857;BME280;63344;46.980;28.882;2024-02-26T00:20:22;100880.94;;;6.82;85.35
71857;BME280;63344;46.980;28.882;2024-02-26T00:22:49;100879.19;;;6.81;85.27
71857;BME280;63344;46.980;28.882;2024-02-26T00:25:16;100872.28;;;6.73;85.03
71857;BME280;63344;46.980;28.882;2024-02-26T00:27:43;100880.00;;;6.83;84.90
71857;BME280;63344;46.980;28.882;2024-02-26T00:30:11;100882.63;;;6.86;84.91
71857;BME280;63344;46.980;28.882;2024-02-26T00:32:39;100877.31;;;6.87;84.73
71857;BME280;63344;46.980;28.882;2024-02-26T00:35:06;100874.84;;;6.76;84.91
71857;BME280;63344;46.980;28.882;2024-02-26T00:37:33;100883.63;;;6.78;85.09
71857;BME280;63344;46.980;28.882;2024-02-26T00:40:01;100871.50;;;6.68;84.62
71857;BME280;63344;46.980;28.882;2024-02-26T00:42:28;100874.94;;;6.73;85.05
71857;BME280;63344;46.980;28.882;2024-02-26T00:44:55;100878.41;;;6.75;85.23
71857;BME280;63344;46.980;28.882;2024-02-26T00:47:23;100832.28;;;6.48;84.90
71857;BME280;63344;46.980;28.882;2024-02-26T00:49:50;100848.91;;;6.53;84.56
71857;BME280;63344;46.980;28.882;2024-02-26T00:52:17;100881.13;;;6.71;84.87
71857;BME280;63344;46.980;28.882;2024-02-26T00:54:44;100870.63;;;6.69;84.70
71857;BME280;63344;46.980;28.882;2024-02-26T00:57:11;100866.22;;;6.68;84.26
71857;BME280;63344;46.980;28.882;2024-02-26T00:59:39;100863.69;;;6.62;84.32
71857;BME280;63344;46.980;28.882;2024-02-26T01:02:06;100871.50;;;6.68;84.08
71857;BME280;63344;46.980;28.882;2024-02-26T01:04:33;100850.59;;;6.57;84.12
71857;BME280;63344;46.980;28.882;2024-02-26T01:07:01;100865.41;;;6.65;83.79
71857;BME280;63344;46.980;28.882;2024-02-26T01:09:29;100856.75;;;6.58;84.26
71857;BME280;63344;46.980;28.882;2024-02-26T01:11:56;100837.63;;;6.45;83.98
71857;BME280;63344;46.980;28.882;2024-02-26T01:14:23;100835.06;;;6.41;84.04
71857;BME280;63344;46.980;28.882;2024-02-26T01:16:50;100840.34;;;6.41;84.35
71857;BME280;63344;46.980;28.882;2024-02-26T01:19:18;100845.81;;;6.30;84.14
71857;BME280;63344;46.980;28.882;2024-02-26T01:21:45;100845.81;;;6.30;84.15
71857;BME280;63344;46.980;28.882;2024-02-26T01:24:12;100846.75;;;6.27;84.24
71857;BME280;63344;46.980;28.882;2024-02-26T01:26:39;100844.13;;;6.27;84.29
71857;BME280;63344;46.980;28.882;2024-02-26T01:29:07;100832.78;;;6.21;84.41
71857;BME280;63344;46.980;28.882;2024-02-26T01:31:34;100854.66;;;6.27;84.16
71857;BME280;63344;46.980;28.882;2024-02-26T01:34:03;100855.50;;;6.29;84.46
71857;BME280;63344;46.980;28.882;2024-02-26T01:36:30;100841.63;;;6.18;84.50
71857;BME280;63344;46.980;28.882;2024-02-26T01:38:58;100850.41;;;6.17;84.38
71857;BME280;63344;46.980;28.882;2024-02-26T01:41:25;100854.81;;;6.18;83.93
71857;BME280;63344;46.980;28.882;2024-02-26T01:43:52;100845.44;;;5.98;84.17
71857;BME280;63344;46.980;28.882;2024-02-26T01:46:19;100855.16;;;5.95;84.29
71857;BME280;63344;46.980;28.882;2024-02-26T01:48:48;100842.16;;;5.83;84.85
71857;BME280;63344;46.980;28.882;2024-02-26T01:51:17;100866.72;;;5.86;85.00
71857;BME280;63344;46.980;28.882;2024-02-26T01:53:45;100856.28;;;5.78;85.06
71857;BME280;63344;46.980;28.882;2024-02-26T01:56:12;100851.16;;;5.69;85.04
71857;BME280;63344;46.980;28.882;2024-02-26T01:58:41;100861.75;;;5.66;85.41
71857;BME280;63344;46.980;28.882;2024-02-26T02:01:09;100857.44;;;5.59;85.85
71857;BME280;63344;46.980;28.882;2024-02-26T02:03:37;100856.59;;;5.57;85.72
71857;BME280;63344;46.980;28.882;2024-02-26T02:06:05;100848.84;;;5.48;85.81
71857;BME280;63344;46.980;28.882;2024-02-26T02:08:35;100846.25;;;5.43;86.01
71857;BME280;63344;46.980;28.882;2024-02-26T02:11:02;100844.50;;;5.45;86.48
71857;BME280;63344;46.980;28.882;2024-02-26T02:13:30;100862.94;;;5.45;86.44
71857;BME280;63344;46.980;28.882;2024-02-26T02:15:57;100858.63;;;5.38;86.39
71857;BME280;63344;46.980;28.882;2024-02-26T02:18:25;100859.41;;;5.43;86.24
71857;BME280;63344;46.980;28.882;2024-02-26T02:20:53;100862.88;;;5.47;86.37
71857;BME280;63344;46.980;28.882;2024-02-26T02:23:21;100848.09;;;5.36;86.37
71857;BME280;63344;46.980;28.882;2024-02-26T02:25:48;100853.25;;;5.46;86.16
71857;BME280;63344;46.980;28.882;2024-02-26T02:28:17;100865.41;;;5.56;86.29
71857;BME280;63344;46.980;28.882;2024-02-26T02:30:44;100863.63;;;5.56;85.90
71857;BME280;63344;46.980;28.882;2024-02-26T02:33:12;100851.47;;;5.49;85.49
71857;BME280;63344;46.980;28.882;2024-02-26T02:35:41;100877.75;;;5.52;85.63
71857;BME280;63344;46.980;28.882;2024-02-26T02:38:10;100877.81;;;5.48;85.72
71857;BME280;63344;46.980;28.882;2024-02-26T02:40:37;100875.28;;;5.40;85.83
71857;BME280;63344;46.980;28.882;2024-02-26T02:43:05;100857.88;;;5.30;86.17
71857;BME280;63344;46.980;28.882;2024-02-26T02:45:33;100853.53;;;5.27;86.36
71857;BME280;63344;46.980;28.882;2024-02-26T02:48:00;100854.41;;;5.23;86.39
71857;BME280;63344;46.980;28.882;2024-02-26T02:50:27;100860.53;;;5.27;86.25
71857;BME280;63344;46.980;28.882;2024-02-26T02:52:57;100838.78;;;5.12;86.32
71857;BME280;63344;46.980;28.882;2024-02-26T02:55:24;100865.00;;;5.22;86.63
71857;BME280;63344;46.980;28.882;2024-02-26T02:57:52;100861.50;;;5.19;86.86
71857;BME280;63344;46.980;28.882;2024-02-26T03:00:19;100863.25;;;5.21;87.01
71857;BME280;63344;46.980;28.882;2024-02-26T03:02:47;100840.63;;;5.07;87.44
71857;BME280;63344;46.980;28.882;2024-02-26T03:05:14;100867.47;;;5.34;87.20
71857;BME280;63344;46.980;28.882;2024-02-26T03:07:42;100857.78;;;5.34;86.94
71857;BME280;63344;46.980;28.882;2024-02-26T03:10:09;100842.91;;;5.32;86.52
71857;BME280;63344;46.980;28.882;2024-02-26T03:12:36;100858.53;;;5.44;86.53
71857;BME280;63344;46.980;28.882;2024-02-26T03:15:04;100854.97;;;5.48;86.31
71857;BME280;63344;46.980;28.882;2024-02-26T03:17:32;100851.50;;;5.43;86.44
71857;BME280;63344;46.980;28.882;2024-02-26T03:20:00;100865.41;;;5.57;86.50
71857;BME280;63344;46.980;28.882;2024-02-26T03:22:27;100858.38;;;5.55;86.27
71857;BME280;63344;46.980;28.882;2024-02-26T03:24:54;100830.50;;;5.40;85.83
71857;BME280;63344;46.980;28.882;2024-02-26T03:27:22;100846.19;;;5.49;86.00
71857;BME280;63344;46.980;28.882;2024-02-26T03:29:49;100848.69;;;5.57;85.51
71857;BME280;63344;46.980;28.882;2024-02-26T03:32:16;100830.50;;;5.40;85.70
71857;BME280;63344;46.980;28.882;2024-02-26T03:34:51;100847.97;;;5.47;85.80
71857;BME280;63344;46.980;28.882;2024-02-26T03:37:21;100842.78;;;5.41;85.67
71857;BME280;63344;46.980;28.882;2024-02-26T03:39:48;100852.34;;;5.48;86.08
71857;BME280;63344;46.980;28.882;2024-02-26T03:42:16;100846.28;;;5.42;86.46
71857;BME280;63344;46.980;28.882;2024-02-26T03:44:44;100853.31;;;5.41;86.11
71857;BME280;63344;46.980;28.882;2024-02-26T03:47:11;100842.84;;;5.35;86.37
71857;BME280;63344;46.980;28.882;2024-02-26T03:49:38;100839.34;;;5.36;86.49
71857;BME280;63344;46.980;28.882;2024-02-26T03:52:07;100833.34;;;5.26;86.33
71857;BME280;63344;46.980;28.882;2024-02-26T03:54:34;100848.19;;;5.30;86.86
71857;BME280;63344;46.980;28.882;2024-02-26T03:57:01;100850.94;;;5.23;86.56
71857;BME280;63344;46.980;28.882;2024-02-26T03:59:28;100858.03;;;5.17;87.48
71857;BME280;63344;46.980;28.882;2024-02-26T04:01:55;100845.06;;;5.02;87.93
71857;BME280;63344;46.980;28.882;2024-02-26T04:04:22;100866.88;;;5.10;88.63
71857;BME280;63344;46.980;28.882;2024-02-26T04:06:50;100816.41;;;4.76;88.93
71857;BME280;63344;46.980;28.882;2024-02-26T04:09:17;100854.97;;;4.82;88.95
71857;BME280;63344;46.980;28.882;2024-02-26T04:11:45;100865.44;;;4.85;89.17
71857;BME280;63344;46.980;28.882;2024-02-26T04:14:13;100861.09;;;4.79;89.31
71857;BME280;63344;46.980;28.882;2024-02-26T04:16:41;100862.94;;;4.74;89.23
71857;BME280;63344;46.980;28.882;2024-02-26T04:19:08;100848.09;;;4.65;90.07
71857;BME280;63344;46.980;28.882;2024-02-26T04:21:36;100868.25;;;4.68;89.70
71857;BME280;63344;46.980;28.882;2024-02-26T04:24:03;100851.75;;;4.52;90.23
71857;BME280;63344;46.980;28.882;2024-02-26T04:26:30;100876.28;;;4.55;90.72
71857;BME280;63344;46.980;28.882;2024-02-26T04:28:59;100859.66;;;4.49;91.22
71857;BME280;63344;46.980;28.882;2024-02-26T04:31:26;100854.47;;;4.44;91.00
71857;BME280;63344;46.980;28.882;2024-02-26T04:33:55;100876.31;;;4.51;91.31
71857;BME280;63344;46.980;28.882;2024-02-26T04:36:23;100869.31;;;4.48;91.57
71857;BME280;63344;46.980;28.882;2024-02-26T04:38:55;100844.94;;;4.31;91.59
71857;BME280;63344;46.980;28.882;2024-02-26T04:41:22;100864.19;;;4.33;91.99
71857;BME280;63344;46.980;28.882;2024-02-26T04:43:52;100823.34;;;3.99;92.26
71857;BME280;63344;46.980;28.882;2024-02-26T04:46:21;100862.59;;;4.18;92.59
71857;BME280;63344;46.980;28.882;2024-02-26T04:48:49;100852.16;;;4.10;92.82
71857;BME280;63344;46.980;28.882;2024-02-26T04:51:17;100860.88;;;4.15;93.03
71857;BME280;63344;46.980;28.882;2024-02-26T04:53:45;100850.44;;;4.06;93.06
71857;BME280;63344;46.980;28.882;2024-02-26T04:56:12;100820.81;;;3.86;93.50
71857;BME280;63344;46.980;28.882;2024-02-26T04:58:42;100871.47;;;4.05;93.82
71857;BME280;63344;46.980;28.882;2024-02-26T05:01:11;100874.09;;;4.06;93.45
71857;BME280;63344;46.980;28.882;2024-02-26T05:03:41;100828.72;;;3.84;93.62
71857;BME280;63344;46.980;28.882;2024-02-26T05:06:09;100882.75;;;4.17;93.54
71857;BME280;63344;46.980;28.882;2024-02-26T05:08:37;100876.66;;;4.11;93.49
71857;BME280;63344;46.980;28.882;2024-02-26T05:11:05;100875.81;;;4.07;93.53
71857;BME280;63344;46.980;28.882;2024-02-26T05:13:34;100874.06;;;4.08;93.77
71857;BME280;63344;46.980;28.882;2024-02-26T05:16:01;100905.47;;;4.23;93.65
71857;BME280;63344;46.980;28.882;2024-02-26T05:18:29;100898.50;;;4.19;93.60
71857;BME280;63344;46.980;28.882;2024-02-26T05:20:56;100881.91;;;4.12;94.03
71857;BME280;63344;46.980;28.882;2024-02-26T05:23:25;100861.81;;;4.05;94.44
71857;BME280;63344;46.980;28.882;2024-02-26T05:25:52;100882.78;;;4.16;94.44
71857;BME280;63344;46.980;28.882;2024-02-26T05:28:21;100876.66;;;4.12;94.30
71857;BME280;63344;46.980;28.882;2024-02-26T05:30:48;100891.50;;;4.18;94.08
71857;BME280;63344;46.980;28.882;2024-02-26T05:33:55;100885.38;;;4.17;94.03
71857;BME280;63344;46.980;28.882;2024-02-26T05:36:27;100873.97;;;4.18;93.85
71857;BME280;63344;46.980;28.882;2024-02-26T05:39:00;100908.03;;;4.35;93.91
71857;BME280;63344;46.980;28.882;2024-02-26T05:41:29;100917.53;;;4.47;94.01
71857;BME280;63344;46.980;28.882;2024-02-26T05:43:56;100905.22;;;4.54;94.03
71857;BME280;63344;46.980;28.882;2024-02-26T05:46:23;100887.66;;;4.54;93.63
71857;BME280;63344;46.980;28.882;2024-02-26T05:48:51;100889.31;;;4.66;93.66
71857;BME280;63344;46.980;28.882;2024-02-26T05:51:19;100888.38;;;4.73;92.84
71857;BME280;63344;46.980;28.882;2024-02-26T05:53:47;100893.56;;;4.79;92.61
71857;BME280;63344;46.980;28.882;2024-02-26T05:56:26;100892.69;;;4.79;91.59
71857;BME280;63344;46.980;28.882;2024-02-26T05:58:53;100890.03;;;4.79;91.28
71857;BME280;63344;46.980;28.882;2024-02-26T06:01:21;100899.56;;;4.91;91.16
71857;BME280;63344;46.980;28.882;2024-02-26T06:03:48;100903.09;;;4.91;90.70
71857;BME280;63344;46.980;28.882;2024-02-26T06:06:16;100896.13;;;4.86;90.60
71857;BME280;63344;46.980;28.882;2024-02-26T06:08:58;100910.00;;;4.98;90.10
71857;BME280;63344;46.980;28.882;2024-02-26T06:11:25;100889.09;;;4.85;90.18
71857;BME280;63344;46.980;28.882;2024-02-26T06:13:53;100898.69;;;4.90;90.42
71857;BME280;63344;46.980;28.882;2024-02-26T06:16:20;100911.66;;;5.09;90.46
71857;BME280;63344;46.980;28.882;2024-02-26T06:18:47;100908.09;;;5.13;90.55
71857;BME280;63344;46.980;28.882;2024-02-26T06:21:15;100861.88;;;4.87;89.96
71857;BME280;63344;46.980;28.882;2024-02-26T06:23:42;100898.38;;;5.18;90.53
71857;BME280;63344;46.980;28.882;2024-02-26T06:26:10;100892.22;;;5.19;90.09
71857;BME280;63344;46.980;28.882;2024-02-26T06:28:37;100880.03;;;5.12;90.08
71857;BME280;63344;46.980;28.882;2024-02-26T06:31:08;100902.56;;;5.33;89.79
71857;BME280;63344;46.980;28.882;2024-02-26T06:33:35;100878.09;;;5.25;89.74
71857;BME280;63344;46.980;28.882;2024-02-26T06:36:03;100903.31;;;5.44;89.64
71857;BME280;63344;46.980;28.882;2024-02-26T06:38:31;100871.72;;;5.43;89.27
71857;BME280;63344;46.980;28.882;2024-02-26T06:40:59;100857.63;;;5.47;88.90
71857;BME280;63344;46.980;28.882;2024-02-26T06:43:26;100888.84;;;5.76;88.83
71857;BME280;63344;46.980;28.882;2024-02-26T06:45:54;100856.47;;;5.68;88.26
71857;BME280;63344;46.980;28.882;2024-02-26T06:48:26;100903.41;;;6.03;88.09
71857;BME280;63344;46.980;28.882;2024-02-26T06:50:54;100898.09;;;6.05;86.80
71857;BME280;63344;46.980;28.882;2024-02-26T06:53:22;100882.38;;;5.98;86.81
71857;BME280;63344;46.980;28.882;2024-02-26T06:55:50;100897.94;;;6.14;86.56
71857;BME280;63344;46.980;28.882;2024-02-26T06:58:17;100902.97;;;6.29;86.12
71857;BME280;63344;46.980;28.882;2024-02-26T07:00:45;100867.06;;;6.21;86.51
71857;BME280;63344;46.980;28.882;2024-02-26T07:03:16;100898.34;;;6.44;85.10
71857;BME280;63344;46.980;28.882;2024-02-26T07:05:44;100899.28;;;6.40;84.50
71857;BME280;63344;46.980;28.882;2024-02-26T07:08:14;100912.34;;;6.47;84.69
71857;BME280;63344;46.980;28.882;2024-02-26T07:10:42;100886.94;;;6.42;84.74
71857;BME280;63344;46.980;28.882;2024-02-26T07:13:10;100892.94;;;6.50;84.34
71857;BME280;63344;46.980;28.882;2024-02-26T07:15:42;100847.59;;;6.28;84.03
71857;BME280;63344;46.980;28.882;2024-02-26T07:18:10;100906.50;;;6.78;83.76
71857;BME280;63344;46.980;28.882;2024-02-26T07:20:39;100878.31;;;6.80;83.76
71857;BME280;63344;46.980;28.882;2024-02-26T07:23:07;100889.50;;;6.93;82.46
71857;BME280;63344;46.980;28.882;2024-02-26T07:25:39;100893.66;;;7.05;82.11
71857;BME280;63344;46.980;28.882;2024-02-26T07:28:14;100882.13;;;7.10;82.18
71857;BME280;63344;46.980;28.882;2024-02-26T07:30:48;100912.31;;;7.41;81.21
71857;BME280;63344;46.980;28.882;2024-02-26T07:33:15;100881.91;;;7.21;80.82
71857;BME280;63344;46.980;28.882;2024-02-26T07:35:47;100879.91;;;7.31;80.55
71857;BME280;63344;46.980;28.882;2024-02-26T07:38:15;100910.97;;;7.63;80.21
71857;BME280;63344;46.980;28.882;2024-02-26T07:41:05;100910.03;;;7.66;78.94
71857;BME280;63344;46.980;28.882;2024-02-26T07:43:35;100870.72;;;7.49;79.24
71857;BME280;63344;46.980;28.882;2024-02-26T07:46:02;100875.78;;;7.61;78.95
71857;BME280;63344;46.980;28.882;2024-02-26T07:48:32;100896.28;;;7.89;78.31
71857;BME280;63344;46.980;28.882;2024-02-26T07:51:00;100889.38;;;7.83;77.55
71857;BME280;63344;46.980;28.882;2024-02-26T07:53:33;100884.00;;;7.86;77.74
71857;BME280;63344;46.980;28.882;2024-02-26T07:56:01;100918.91;;;8.01;77.33
71857;BME280;63344;46.980;28.882;2024-02-26T07:58:32;100891.78;;;7.92;77.23
71857;BME280;63344;46.980;28.882;2024-02-26T08:01:01;100885.47;;;7.98;77.61
71857;BME280;63344;46.980;28.882;2024-02-26T08:03:29;100871.19;;;8.07;77.23
71857;BME280;63344;46.980;28.882;2024-02-26T08:06:01;100897.88;;;8.32;76.90
71857;BME280;63344;46.980;28.882;2024-02-26T08:08:29;100884.59;;;8.35;76.42
71857;BME280;63344;46.980;28.882;2024-02-26T08:10:56;100876.53;;;8.41;75.81
71857;BME280;63344;46.980;28.882;2024-02-26T08:13:23;100909.41;;;8.67;75.35
71857;BME280;63344;46.980;28.882;2024-02-26T08:15:51;100915.06;;;8.86;75.66
71857;BME280;63344;46.980;28.882;2024-02-26T08:18:18;100884.88;;;8.91;74.78
71857;BME280;63344;46.980;28.882;2024-02-26T08:20:47;100846.13;;;8.89;74.04
71857;BME280;63344;46.980;28.882;2024-02-26T08:23:16;100865.56;;;9.19;73.86
71857;BME280;63344;46.980;28.882;2024-02-26T08:25:43;100860.38;;;9.44;72.44
71857;BME280;63344;46.980;28.882;2024-02-26T08:28:10;100855.53;;;9.59;71.88
71857;BME280;63344;46.980;28.882;2024-02-26T08:30:41;100852.97;;;9.84;70.84
71857;BME280;63344;46.980;28.882;2024-02-26T08:33:08;100835.78;;;9.95;69.52
71857;BME280;63344;46.980;28.882;2024-02-26T08:35:36;100885.31;;;10.50;68.29
71857;BME280;63344;46.980;28.882;2024-02-26T08:38:05;100866.72;;;10.50;66.59
71857;BME280;63344;46.980;28.882;2024-02-26T08:40:36;100845.41;;;10.53;66.82
71857;BME280;63344;46.980;28.882;2024-02-26T08:43:13;100850.50;;;10.59;65.54
71857;BME280;63344;46.980;28.882;2024-02-26T08:45:41;100900.22;;;11.04;65.85
71857;BME280;63344;46.980;28.882;2024-02-26T08:48:09;100874.47;;;11.06;65.44
71857;BME280;63344;46.980;28.882;2024-02-26T08:50:37;100861.88;;;11.11;64.43
71857;BME280;63344;46.980;28.882;2024-02-26T08:53:04;100886.34;;;11.21;63.16
71857;BME280;63344;46.980;28.882;2024-02-26T08:55:34;100872.50;;;11.11;63.24
71857;BME280;63344;46.980;28.882;2024-02-26T08:58:01;100864.25;;;11.19;63.04
71857;BME280;63344;46.980;28.882;2024-02-26T09:00:31;100862.28;;;11.48;62.83
71857;BME280;63344;46.980;28.882;2024-02-26T09:02:58;100878.47;;;11.87;62.36
71857;BME280;63344;46.980;28.882;2024-02-26T09:05:31;100859.63;;;12.77;61.57
71857;BME280;63344;46.980;28.882;2024-02-26T09:07:58;100839.47;;;14.58;58.74
71857;BME280;63344;46.980;28.882;2024-02-26T09:10:26;100880.69;;;16.33;52.00
71857;BME280;63344;46.980;28.882;2024-02-26T09:12:53;100873.16;;;17.57;48.61
71857;BME280;63344;46.980;28.882;2024-02-26T09:15:22;100831.50;;;18.58;45.08
71857;BME280;63344;46.980;28.882;2024-02-26T09:18:04;100845.56;;;19.02;42.82
71857;BME280;63344;46.980;28.882;2024-02-26T09:20:32;100882.78;;;19.96;42.31
71857;BME280;63344;46.980;28.882;2024-02-26T09:22:59;100865.00;;;20.18;38.52
71857;BME280;63344;46.980;28.882;2024-02-26T09:25:26;100855.00;;;20.07;37.85
71857;BME280;63344;46.980;28.882;2024-02-26T09:27:54;100863.47;;;19.53;37.72
71857;BME280;63344;46.980;28.882;2024-02-26T09:30:22;100855.47;;;19.64;37.72
71857;BME280;63344;46.980;28.882;2024-02-26T09:32:49;100853.41;;;19.67;38.85
71857;BME280;63344;46.980;28.882;2024-02-26T09:35:17;100856.38;;;20.13;38.07
71857;BME280;63344;46.980;28.882;2024-02-26T09:37:47;100857.75;;;20.18;37.78
71857;BME280;63344;46.980;28.882;2024-02-26T09:40:16;100858.97;;;19.90;37.64
71857;BME280;63344;46.980;28.882;2024-02-26T09:43:00;100846.50;;;19.76;37.56
71857;BME280;63344;46.980;28.882;2024-02-26T09:45:30;100843.72;;;20.02;36.39
71857;BME280;63344;46.980;28.882;2024-02-26T09:48:00;100841.06;;;20.84;35.08
71857;BME280;63344;46.980;28.882;2024-02-26T09:50:32;100846.63;;;21.50;34.28
71857;BME280;63344;46.980;28.882;2024-02-26T09:52:59;100834.00;;;22.26;32.73
71857;BME280;63344;46.980;28.882;2024-02-26T09:55:36;100828.00;;;23.07;31.12
71857;BME280;63344;46.980;28.882;2024-02-26T09:58:05;100836.94;;;23.29;28.24
71857;BME280;63344;46.980;28.882;2024-02-26T10:00:37;100821.69;;;22.55;29.75
71857;BME280;63344;46.980;28.882;2024-02-26T10:03:07;100842.91;;;23.01;29.89
71857;BME280;63344;46.980;28.882;2024-02-26T10:05:51;100832.97;;;22.81;29.40
71857;BME280;63344;46.980;28.882;2024-02-26T10:08:22;100819.50;;;22.70;27.69
71857;BME280;63344;46.980;28.882;2024-02-26T10:10:51;100804.13;;;21.84;28.46
71857;BME280;63344;46.980;28.882;2024-02-26T10:13:19;100818.66;;;22.16;29.14
71857;BME280;63344;46.980;28.882;2024-02-26T10:15:48;100831.13;;;22.39;27.05
71857;BME280;63344;46.980;28.882;2024-02-26T10:18:16;100802.00;;;21.99;28.25
71857;BME280;63344;46.980;28.882;2024-02-26T10:21:02;100792.75;;;22.34;27.63
71857;BME280;63344;46.980;28.882;2024-02-26T10:23:29;100797.00;;;22.27;27.42
71857;BME280;63344;46.980;28.882;2024-02-26T10:25:57;100793.38;;;21.73;27.67
71857;BME280;63344;46.980;28.882;2024-02-26T10:28:24;100811.47;;;21.39;28.57
71857;BME280;63344;46.980;28.882;2024-02-26T10:30:52;100810.25;;;20.86;29.18
71857;BME280;63344;46.980;28.882;2024-02-26T10:33:20;100770.84;;;20.84;28.48
71857;BME280;63344;46.980;28.882;2024-02-26T10:35:48;100828.44;;;21.29;28.72
71857;BME280;63344;46.980;28.882;2024-02-26T10:38:15;100789.97;;;20.81;29.45
71857;BME280;63344;46.980;28.882;2024-02-26T10:40:49;100815.28;;;21.14;29.89
71857;BME280;63344;46.980;28.882;2024-02-26T10:43:16;100820.69;;;20.91;28.41
71857;BME280;63344;46.980;28.882;2024-02-26T10:45:46;100783.81;;;20.21;29.36
71857;BME280;63344;46.980;28.882;2024-02-26T10:48:14;100814.09;;;20.13;29.75
71857;BME280;63344;46.980;28.882;2024-02-26T10:50:42;100804.41;;;19.86;29.80
71857;BME280;63344;46.980;28.882;2024-02-26T10:53:17;100789.97;;;19.50;29.70
71857;BME280;63344;46.980;28.882;2024-02-26T10:55:46;100810.34;;;20.03;29.92
71857;BME280;63344;46.980;28.882;2024-02-26T10:58:14;100778.09;;;20.25;30.04
71857;BME280;63344;46.980;28.882;2024-02-26T11:00:45;100769.09;;;20.49;29.88
71857;BME280;63344;46.980;28.882;2024-02-26T11:03:15;100759.44;;;20.22;29.69
71857;BME280;63344;46.980;28.882;2024-02-26T11:05:49;100782.50;;;20.84;29.39
71857;BME280;63344;46.980;28.882;2024-02-26T11:08:20;100785.88;;;20.53;29.57
71857;BME280;63344;46.980;28.882;2024-02-26T11:10:50;100761.78;;;20.74;29.78
71857;BME280;63344;46.980;28.882;2024-02-26T11:13:21;100761.75;;;20.96;30.27
71857;BME280;63344;46.980;28.882;2024-02-26T11:15:50;100760.66;;;21.76;29.37
71857;BME280;63344;46.980;28.882;2024-02-26T11:18:19;100757.81;;;21.78;29.33
71857;BME280;63344;46.980;28.882;2024-02-26T11:20:47;100780.00;;;21.60;29.77
71857;BME280;63344;46.980;28.882;2024-02-26T11:23:15;100790.13;;;20.33;31.38
71857;BME280;63344;46.980;28.882;2024-02-26T11:25:43;100767.09;;;19.56;32.62
71857;BME280;63344;46.980;28.882;2024-02-26T11:28:13;100775.78;;;18.86;33.14
71857;BME280;63344;46.980;28.882;2024-02-26T11:31:02;100782.22;;;18.70;34.41
71857;BME280;63344;46.980;28.882;2024-02-26T11:33:31;100765.41;;;19.55;32.94
71857;BME280;63344;46.980;28.882;2024-02-26T11:36:00;100754.03;;;19.63;32.05
71857;BME280;63344;46.980;28.882;2024-02-26T11:38:28;100789.69;;;20.15;32.37
71857;BME280;63344;46.980;28.882;2024-02-26T11:40:55;100775.44;;;20.01;32.64
71857;BME280;63344;46.980;28.882;2024-02-26T11:43:44;100780.84;;;19.77;32.97
71857;BME280;63344;46.980;28.882;2024-02-26T11:46:33;100756.50;;;19.66;32.65
71857;BME280;63344;46.980;28.882;2024-02-26T11:49:02;100749.88;;;19.22;32.93
71857;BME280;63344;46.980;28.882;2024-02-26T11:51:34;100782.19;;;19.22;33.46
71857;BME280;63344;46.980;28.882;2024-02-26T11:54:02;100768.31;;;19.52;33.47
71857;BME280;63344;46.980;28.882;2024-02-26T11:56:33;100759.41;;;19.76;33.26
71857;BME280;63344;46.980;28.882;2024-02-26T11:59:08;100769.03;;;19.91;32.75
71857;BME280;63344;46.980;28.882;2024-02-26T12:04:24;100745.91;;;19.52;32.99
71857;BME280;63344;46.980;28.882;2024-02-26T12:07:03;100778.28;;;19.76;32.58
71857;BME280;63344;46.980;28.882;2024-02-26T12:12:01;100725.09;;;19.29;33.65
71857;BME280;63344;46.980;28.882;2024-02-26T12:14:28;100769.88;;;19.92;33.48
71857;BME280;63344;46.980;28.882;2024-02-26T12:16:58;100754.91;;;19.63;33.80
71857;BME280;63344;46.980;28.882;2024-02-26T12:19:27;100746.88;;;19.14;34.68
71857;BME280;63344;46.980;28.882;2024-02-26T12:21:55;100751.34;;;18.89;35.35
71857;BME280;63344;46.980;28.882;2024-02-26T12:24:22;100769.72;;;18.57;36.07
71857;BME280;63344;46.980;28.882;2024-02-26T12:26:53;100765.75;;;18.24;36.36
71857;BME280;63344;46.980;28.882;2024-02-26T12:29:20;100752.44;;;17.95;36.43
71857;BME280;63344;46.980;28.882;2024-02-26T12:31:49;100761.31;;;17.83;37.21
71857;BME280;63344;46.980;28.882;2024-02-26T12:34:16;100735.38;;;18.09;36.30
71857;BME280;63344;46.980;28.882;2024-02-26T12:36:44;100776.09;;;18.56;35.74
71857;BME280;63344;46.980;28.882;2024-02-26T12:39:11;100743.78;;;18.43;35.75
71857;BME280;63344;46.980;28.882;2024-02-26T12:41:39;100734.25;;;18.51;35.54
71857;BME280;63344;46.980;28.882;2024-02-26T12:44:08;100746.25;;;18.33;35.21
71857;BME280;63344;46.980;28.882;2024-02-26T12:46:35;100737.47;;;18.44;35.36
71857;BME280;63344;46.980;28.882;2024-02-26T12:49:02;100735.84;;;18.54;35.78
71857;BME280;63344;46.980;28.882;2024-02-26T12:51:45;100758.75;;;18.73;35.20
71857;BME280;63344;46.980;28.882;2024-02-26T12:54:13;100760.22;;;18.00;36.75
71857;BME280;63344;46.980;28.882;2024-02-26T12:56:41;100752.53;;;17.39;37.50
71857;BME280;63344;46.980;28.882;2024-02-26T12:59:09;100758.94;;;16.95;38.43
71857;BME280;63344;46.980;28.882;2024-02-26T13:01:39;100747.44;;;16.64;38.96